createdAt,value
2023-01-28T00:00:16.255Z,10.224306
2023-01-28T00:05:16.551Z,9.943056
2023-01-28T00:10:16.101Z,9.844444
2023-01-28T00:15:18.608Z,9.908163
2023-01-28T00:20:16.520Z,9.710811
2023-01-28T00:25:17.240Z,9.739310
2023-01-28T00:30:16.685Z,9.445139
2023-01-28T00:35:17.078Z,9.301429
2023-01-28T00:40:15.749Z,9.885517
2023-01-28T00:45:17.389Z,10.202797
2023-01-28T00:50:17.097Z,10.119014
2023-01-28T00:55:16.207Z,10.081818
2023-01-28T01:00:17.268Z,10.115068
2023-01-28T01:05:17.473Z,9.964138
2023-01-28T01:10:16.583Z,9.029452
2023-01-28T01:15:18.593Z,9.278378
2023-01-28T01:20:16.192Z,9.035374
2023-01-28T01:25:16.614Z,8.737500
2023-01-28T01:30:16.304Z,9.025170
2023-01-28T01:35:16.883Z,9.037671
2023-01-28T01:40:15.996Z,9.073973
2023-01-28T01:45:17.228Z,9.498630
2023-01-28T01:50:16.907Z,9.486301
2023-01-28T01:55:16.490Z,9.265753
2023-01-28T02:00:16.669Z,9.051370
2023-01-28T02:05:16.449Z,9.202685
2023-01-28T02:10:15.560Z,9.383108
2023-01-28T02:15:15.972Z,9.394521
2023-01-28T02:20:16.118Z,9.298639
2023-01-28T02:25:17.040Z,9.286986
2023-01-28T02:30:15.963Z,9.062329
2023-01-28T02:35:19.033Z,9.015972
2023-01-28T02:40:17.216Z,9.150345
2023-01-28T02:45:16.325Z,9.295139
2023-01-28T02:50:16.295Z,9.509589
2023-01-28T02:55:16.897Z,9.738889
2023-01-28T03:00:17.852Z,10.079310
2023-01-28T03:05:18.347Z,10.148630
2023-01-28T03:10:16.339Z,10.153425
2023-01-28T03:15:18.724Z,10.256463
2023-01-28T03:20:16.266Z,10.087671
2023-01-28T03:25:16.337Z,9.676712
2023-01-28T03:30:16.186Z,9.371233
2023-01-28T03:35:17.696Z,9.267347
2023-01-28T03:40:16.679Z,9.071724
2023-01-28T03:45:17.886Z,8.797241
2023-01-28T03:50:15.879Z,8.659310
2023-01-28T03:55:18.349Z,8.537762
2023-01-28T04:00:16.211Z,8.349655
2023-01-28T04:05:21.035Z,8.420690
2023-01-28T04:10:16.372Z,8.284722
2023-01-28T04:15:17.974Z,8.283333
2023-01-28T04:20:18.473Z,8.359028
2023-01-28T04:25:17.886Z,8.347183
2023-01-28T04:30:16.983Z,8.195035
2023-01-28T04:35:17.679Z,7.884507
2023-01-28T04:40:17.336Z,7.579577
2023-01-28T04:45:17.671Z,7.521277
2023-01-28T04:50:20.825Z,7.651049
2023-01-28T04:55:16.131Z,7.716084
2023-01-28T05:00:16.010Z,7.901361
2023-01-28T05:05:16.409Z,8.019863
2023-01-28T05:10:18.370Z,7.931034
2023-01-28T05:15:17.778Z,7.893151
2023-01-28T05:20:16.916Z,7.741844
2023-01-28T05:25:17.193Z,7.719718
2023-01-28T05:30:18.442Z,7.535664
2023-01-28T05:35:18.750Z,7.224648
2023-01-28T05:40:16.892Z,7.060993
2023-01-28T05:45:16.739Z,7.133803
2023-01-28T05:50:17.872Z,7.200000
2023-01-28T05:55:20.465Z,7.334266
2023-01-28T06:00:16.908Z,7.469231
2023-01-28T06:05:16.389Z,7.281250
2023-01-28T06:10:16.471Z,7.700000
2023-01-28T06:15:21.811Z,8.283448
2023-01-28T06:20:16.415Z,8.365753
2023-01-28T06:25:17.001Z,8.362937
2023-01-28T06:30:17.198Z,8.061111
2023-01-28T06:35:17.268Z,7.598611
2023-01-28T06:40:17.288Z,7.734722
2023-01-28T06:45:16.409Z,8.088028
2023-01-28T06:50:21.275Z,7.819858
2023-01-28T06:55:17.017Z,7.785315
2023-01-28T07:00:16.117Z,8.009790
2023-01-28T07:05:16.390Z,8.281250
2023-01-28T07:10:16.062Z,8.306944
2023-01-28T07:15:18.395Z,8.204895
2023-01-28T07:20:16.322Z,7.983916
2023-01-28T07:25:17.337Z,8.113986
2023-01-28T07:30:16.656Z,8.197203
2023-01-28T07:35:17.061Z,8.372917
2023-01-28T07:40:16.612Z,8.577931
2023-01-28T07:45:15.668Z,8.689583
2023-01-28T07:50:17.991Z,8.744138
2023-01-28T07:55:25.662Z,8.881250
2023-01-28T08:00:17.595Z,8.779021
2023-01-28T08:05:16.988Z,8.682759
2023-01-28T08:10:16.851Z,8.630769
2023-01-28T08:15:16.196Z,8.516667
2023-01-28T08:20:18.060Z,8.779577
2023-01-28T08:25:16.575Z,8.999310
2023-01-28T08:30:17.372Z,8.922759
2023-01-28T08:35:17.189Z,8.718750
2023-01-28T08:40:16.747Z,8.700000
2023-01-28T08:45:19.293Z,8.662500
2023-01-28T08:50:16.800Z,8.845139
2023-01-28T08:55:17.455Z,8.380556
2023-01-28T09:00:17.846Z,8.239310
2023-01-28T09:05:21.678Z,8.521622
2023-01-28T09:10:18.142Z,8.632192
2023-01-28T09:15:17.519Z,8.220548
2023-01-28T09:20:17.077Z,8.041379
2023-01-28T09:25:16.381Z,7.869388
2023-01-28T09:30:16.318Z,7.787162
2023-01-28T09:35:16.196Z,7.875676
2023-01-28T09:40:16.250Z,8.143243
2023-01-28T09:45:16.020Z,8.043243
2023-01-28T09:50:16.927Z,7.675839
2023-01-28T09:55:16.266Z,7.308725
2023-01-28T10:00:17.840Z,7.358667
2023-01-28T10:05:18.524Z,7.805333
2023-01-28T10:10:17.492Z,8.069128
2023-01-28T10:15:15.610Z,7.812000
2023-01-28T10:20:18.262Z,7.247973
2023-01-28T10:25:23.207Z,7.021088
2023-01-28T10:30:16.546Z,6.913605
2023-01-28T10:35:17.144Z,7.050000
2023-01-28T10:40:16.673Z,7.460135
2023-01-28T10:45:19.817Z,7.577703
2023-01-28T10:50:17.428Z,7.335570
2023-01-28T10:55:16.580Z,7.070548
2023-01-28T11:00:18.369Z,7.049650
2023-01-28T11:05:16.610Z,6.978472
2023-01-28T11:10:17.751Z,6.936111
2023-01-28T11:15:17.665Z,7.035616
2023-01-28T11:20:17.918Z,6.989116
2023-01-28T11:25:17.750Z,7.087755
2023-01-28T11:30:22.391Z,7.048649
2023-01-28T11:35:17.714Z,7.282877
2023-01-28T11:40:18.205Z,6.969655
2023-01-28T11:45:17.065Z,7.163265
2023-01-28T11:50:18.507Z,7.322297
2023-01-28T11:55:17.234Z,7.488514
2023-01-28T12:00:16.985Z,7.456081
2023-01-28T12:05:17.145Z,7.292568
2023-01-28T12:10:21.421Z,7.578378
2023-01-28T12:15:17.504Z,7.724667
2023-01-28T12:20:17.204Z,7.712838
2023-01-28T12:25:17.153Z,7.679054
2023-01-28T12:30:17.384Z,7.661074
2023-01-28T12:35:16.479Z,7.482877
2023-01-28T12:40:18.197Z,7.526027
2023-01-28T12:45:19.912Z,7.836986
2023-01-28T12:50:22.013Z,7.622917
2023-01-28T12:55:17.041Z,7.455556
2023-01-28T13:00:18.068Z,7.296528
2023-01-28T13:05:18.405Z,7.240690
2023-01-28T13:10:17.489Z,6.983803
2023-01-28T13:15:18.427Z,7.000694
2023-01-28T13:20:16.570Z,7.110345
2023-01-28T13:25:22.084Z,7.545517
2023-01-28T13:30:17.064Z,7.534483
2023-01-28T13:35:22.256Z,7.273103
2023-01-28T13:40:16.339Z,7.477931
2023-01-28T13:45:17.025Z,7.546207
2023-01-28T13:50:18.842Z,7.531944
2023-01-28T13:55:37.407Z,7.555172
2023-01-28T14:00:19.956Z,7.449315
2023-01-28T14:05:17.608Z,7.033333
2023-01-28T14:10:16.863Z,7.178767
2023-01-28T14:15:17.492Z,7.374150
2023-01-28T14:20:16.523Z,7.686897
2023-01-28T14:25:17.332Z,7.879310
2023-01-28T14:30:17.071Z,7.561905
2023-01-28T14:35:16.416Z,7.504110
2023-01-28T14:40:16.665Z,7.869863
2023-01-28T14:45:18.589Z,7.625342
2023-01-28T14:50:17.166Z,7.808219
2023-01-28T14:55:16.888Z,7.725503
2023-01-28T15:00:17.527Z,8.022973
2023-01-28T15:05:15.558Z,7.795302
2023-01-28T15:10:17.182Z,7.370270
2023-01-28T15:15:17.471Z,7.175000
2023-01-28T15:20:16.964Z,7.191216
2023-01-28T15:25:18.137Z,7.030345
2023-01-28T15:30:16.915Z,7.014384
2023-01-28T15:35:22.944Z,7.018121
2023-01-28T15:40:17.982Z,6.850676
2023-01-28T15:45:17.476Z,6.736301
2023-01-28T15:50:19.104Z,6.752703
2023-01-28T15:55:19.255Z,6.774825
2023-01-28T16:00:16.625Z,6.762937
2023-01-28T16:05:16.655Z,6.865278
2023-01-28T16:10:16.758Z,6.840972
2023-01-28T16:15:17.595Z,6.723448
2023-01-28T16:20:15.666Z,6.722449
2023-01-28T16:25:17.105Z,6.699320
2023-01-28T16:30:17.919Z,6.630822
2023-01-28T16:35:16.668Z,6.569178
2023-01-28T16:40:16.880Z,6.657241
2023-01-28T16:45:16.487Z,6.751370
2023-01-28T16:50:16.386Z,6.834483
2023-01-28T16:55:22.157Z,6.987500
2023-01-28T17:00:15.531Z,6.869718
2023-01-28T17:05:18.846Z,6.855634
2023-01-28T17:10:17.411Z,6.803521
2023-01-28T17:15:16.581Z,6.856338
2023-01-28T17:20:15.619Z,7.016901
2023-01-28T17:25:17.801Z,6.557447
2023-01-28T17:30:16.629Z,6.461972
2023-01-28T17:35:18.326Z,6.440559
2023-01-28T17:40:16.314Z,6.388028
2023-01-28T17:45:16.448Z,6.488112
2023-01-28T17:50:16.276Z,6.431724
2023-01-28T17:55:16.640Z,6.421918
2023-01-28T18:00:18.645Z,6.482192
2023-01-28T18:05:17.584Z,6.617241
2023-01-28T18:10:16.236Z,6.468310
2023-01-28T18:15:17.400Z,6.453901
2023-01-28T18:20:16.353Z,6.383688
2023-01-28T18:25:17.872Z,6.400000
2023-01-28T18:30:16.738Z,6.390780
2023-01-28T18:35:17.365Z,6.481690
2023-01-28T18:40:17.003Z,6.443972
2023-01-28T18:45:17.042Z,6.582394
2023-01-28T18:50:16.930Z,6.529787
2023-01-28T18:55:17.578Z,6.534752
2023-01-28T19:00:21.693Z,6.749650
2023-01-28T19:05:17.006Z,6.762676
2023-01-28T19:10:17.966Z,6.735714
2023-01-28T19:15:17.447Z,6.707746
2023-01-28T19:20:16.205Z,6.841429
2023-01-28T19:25:17.226Z,7.060000
2023-01-28T19:30:17.563Z,6.951429
2023-01-28T19:35:16.520Z,7.166197
2023-01-28T19:40:16.704Z,7.061871
2023-01-28T19:45:21.450Z,6.886429
2023-01-28T19:50:17.267Z,6.987050
2023-01-28T19:55:16.055Z,6.846809
2023-01-28T20:00:17.824Z,6.978571
2023-01-28T20:05:21.468Z,7.000000
2023-01-28T20:10:16.399Z,7.064964
2023-01-28T20:15:15.931Z,7.244928
2023-01-28T20:20:22.863Z,7.379856
2023-01-28T20:25:17.863Z,7.302857
2023-01-28T20:30:16.973Z,7.360563
2023-01-28T20:35:17.096Z,7.386620
2023-01-28T20:40:16.927Z,7.403521
2023-01-28T20:45:16.648Z,7.459310
2023-01-28T20:50:16.286Z,7.406897
2023-01-28T20:55:24.122Z,7.377241
2023-01-28T21:00:17.316Z,7.381690
2023-01-28T21:05:16.204Z,7.430496
2023-01-28T21:10:17.596Z,7.310638
2023-01-28T21:15:18.709Z,7.383916
2023-01-28T21:20:19.064Z,7.609790
2023-01-28T21:25:16.215Z,7.376923
2023-01-28T21:30:16.531Z,7.260284
2023-01-28T21:35:16.735Z,7.238298
2023-01-28T21:40:16.860Z,7.359722
2023-01-28T21:45:17.392Z,7.390780
2023-01-28T21:50:15.944Z,7.424823
2023-01-28T21:55:15.956Z,7.570000
2023-01-28T22:00:16.117Z,7.566429
2023-01-28T22:05:16.047Z,7.500000
2023-01-28T22:10:17.421Z,7.467391
2023-01-28T22:15:17.630Z,7.620714
2023-01-28T22:20:16.045Z,7.625352
2023-01-28T22:25:16.327Z,7.697183
2023-01-28T22:30:16.489Z,7.860140
2023-01-28T22:35:17.960Z,7.776761
2023-01-28T22:40:16.531Z,7.923944
2023-01-28T22:45:17.397Z,8.007092
2023-01-28T22:50:17.375Z,8.039716
2023-01-28T22:55:16.123Z,7.997872
2023-01-28T23:00:16.212Z,7.885612
2023-01-28T23:05:16.593Z,7.907857
2023-01-28T23:10:16.551Z,8.032624
2023-01-28T23:15:15.588Z,7.932394
2023-01-28T23:20:21.471Z,7.895745
2023-01-28T23:25:16.382Z,7.866429
2023-01-28T23:30:17.419Z,7.758865
2023-01-28T23:35:16.042Z,7.931915
2023-01-28T23:40:17.637Z,7.922222
2023-01-28T23:45:17.064Z,7.842254
2023-01-28T23:50:17.257Z,7.865248
2023-01-28T23:55:15.655Z,7.941429
